Time;durP1;ratioP1;P1;durP2;ratioP2;P2;SDS_P1;SDS_P2;PMS_P1;PMS_P2;Temp;Humidity;BMP_temperature;BMP_pressure;BME280_temperature;BME280_humidity;BME280_pressure;Samples;Min_cycle;Max_cycle;Signal;HPM_P1;HPM_P2
2023/03/26 00:01:24;;;;;;;3.73;1.63;;;;;;;11.26;65.54;100125.00;4998367;28;97741;-81
2023/03/26 00:03:56;;;;;;;1.67;1.57;;;;;;;11.22;65.72;100127.28;4997064;28;97058;-80
2023/03/26 00:06:24;;;;;;;1.20;1.10;;;;;;;11.18;65.48;100137.78;4995841;28;97678;-80
2023/03/26 00:08:51;;;;;;;3.90;1.43;;;;;;;11.20;65.71;100135.28;4998581;28;97122;-80
2023/03/26 00:11:19;;;;;;;2.27;1.47;;;;;;;11.22;65.73;100156.81;4996201;28;98217;-79
2023/03/26 00:13:45;;;;;;;3.57;1.60;;;;;;;11.19;65.73;100146.81;4998655;28;98238;-79
2023/03/26 00:16:12;;;;;;;4.90;1.13;;;;;;;11.22;65.58;100143.06;4994626;28;97390;-80
2023/03/26 00:18:41;;;;;;;1.30;1.20;;;;;;;11.18;65.67;100157.06;4999239;28;97268;-79
2023/03/26 00:21:09;;;;;;;1.50;1.20;;;;;;;11.17;65.62;100147.31;4995217;28;97280;-81
2023/03/26 00:23:35;;;;;;;1.77;1.43;;;;;;;11.16;65.70;100158.84;4996392;28;96932;-80
2023/03/26 00:26:02;;;;;;;1.73;0.97;;;;;;;11.20;65.73;100160.06;4998554;28;97357;-78
2023/03/26 00:28:28;;;;;;;1.87;1.03;;;;;;;11.17;65.71;100168.59;4997997;28;96996;-79
2023/03/26 00:31:03;;;;;;;1.20;1.10;;;;;;;11.17;66.00;100154.81;4995411;28;99738;-81
2023/03/26 00:33:30;;;;;;;2.93;1.53;;;;;;;11.16;65.68;100156.09;4996543;28;99546;-79
2023/03/26 00:35:57;;;;;;;4.40;1.70;;;;;;;11.15;65.80;100146.34;4998229;28;97367;-81
2023/03/26 00:38:24;;;;;;;3.43;1.03;;;;;;;11.13;65.74;100149.59;4999682;28;97798;-80
2023/03/26 00:40:50;;;;;;;1.53;1.40;;;;;;;11.11;65.71;100143.09;4995795;28;99647;-79
2023/03/26 00:43:17;;;;;;;1.57;1.30;;;;;;;11.13;65.65;100149.59;4998406;28;99187;-79
2023/03/26 00:45:51;;;;;;;1.73;1.03;;;;;;;11.12;65.74;100164.59;5000236;28;97414;-79
2023/03/26 00:48:17;;;;;;;2.07;0.80;;;;;;;11.10;65.65;100160.88;4998543;28;97068;-79
2023/03/26 00:50:45;;;;;;;1.73;0.80;;;;;;;11.09;65.59;100164.88;4996897;27;97688;-79
2023/03/26 00:53:12;;;;;;;2.83;1.13;;;;;;;11.05;65.71;100164.41;4999515;28;97861;-79
2023/03/26 00:55:39;;;;;;;7.00;1.00;;;;;;;11.05;65.75;100162.38;4999627;28;97411;-79
2023/03/26 00:58:05;;;;;;;1.53;0.80;;;;;;;11.05;65.66;100165.13;4997552;28;97568;-79
2023/03/26 01:00:33;;;;;;;1.77;0.90;;;;;;;11.06;65.56;100169.41;4997232;28;101035;-80
2023/03/26 01:03:00;;;;;;;1.90;0.83;;;;;;;11.07;65.53;100167.41;4994275;28;99848;-80
2023/03/26 01:05:34;;;;;;;2.73;1.30;;;;;;;11.04;65.52;100166.41;4997984;28;97098;-79
2023/03/26 01:08:13;;;;;;;7.47;1.23;;;;;;;11.04;65.88;100173.91;4998377;28;98108;-80
2023/03/26 01:10:43;;;;;;;2.57;0.90;;;;;;;10.97;65.66;100169.69;4994992;28;97372;-78
2023/03/26 01:13:09;;;;;;;1.57;0.73;;;;;;;10.99;65.64;100199.44;4996460;28;101356;-79
2023/03/26 01:15:36;;;;;;;5.07;0.87;;;;;;;10.98;65.49;100171.19;4995735;28;96861;-79
2023/03/26 01:18:04;;;;;;;1.33;0.83;;;;;;;11.02;65.43;100173.66;5001189;28;97435;-79
2023/03/26 01:20:37;;;;;;;4.50;0.70;;;;;;;10.99;65.42;100169.16;5000949;28;100465;-79
2023/03/26 01:23:05;;;;;;;3.97;1.00;;;;;;;10.97;65.32;100179.94;4997334;28;97513;-80
2023/03/26 01:25:36;;;;;;;2.30;0.60;;;;;;;10.93;65.29;100180.22;5000128;28;97499;-78
2023/03/26 01:28:04;;;;;;;1.00;0.80;;;;;;;10.92;65.39;100186.22;4995797;28;98342;-79
2023/03/26 01:30:48;;;;;;;0.90;0.90;;;;;;;10.91;65.31;100177.22;4996468;28;97565;-78
2023/03/26 01:33:35;;;;;;;2.50;1.17;;;;;;;10.87;65.37;100184.22;4994842;28;97757;-80
2023/03/26 01:36:10;;;;;;;3.27;0.93;;;;;;;10.86;65.17;100191.72;4996857;28;97089;-79
2023/03/26 01:39:00;;;;;;;1.30;0.90;;;;;;;10.87;65.40;100187.75;4997674;28;96733;-78
2023/03/26 01:41:45;;;;;;;2.40;0.70;;;;;;;10.90;65.25;100202.50;4994160;28;97787;-80
2023/03/26 01:44:29;;;;;;;1.30;0.60;;;;;;;10.87;65.31;100198.00;4996624;28;97264;-78
2023/03/26 01:46:57;;;;;;;1.57;0.80;;;;;;;10.88;65.38;100202.22;4996574;28;97130;-78
2023/03/26 01:49:26;;;;;;;1.57;0.83;;;;;;;10.92;65.15;100194.47;4995527;28;97148;-78
2023/03/26 01:51:55;;;;;;;2.00;0.53;;;;;;;10.95;65.10;100198.97;4991665;28;100438;-79
2023/03/26 01:54:24;;;;;;;1.03;0.60;;;;;;;10.97;65.10;100188.94;4997957;28;97185;-79
2023/03/26 01:57:32;;;;;;;1.63;0.70;;;;;;;10.97;65.25;100188.94;4995154;28;96911;-78
2023/03/26 02:00:17;;;;;;;4.00;0.73;;;;;;;10.95;65.19;100191.47;5000593;28;97137;-78
2023/03/26 02:03:16;;;;;;;0.80;0.50;;;;;;;10.95;65.08;100193.44;4994308;28;97381;-78
2023/03/26 02:05:48;;;;;;;1.40;0.90;;;;;;;10.93;64.90;100193.22;4994830;28;96851;-78
2023/03/26 02:08:23;;;;;;;3.20;0.80;;;;;;;10.94;65.12;100184.44;4997092;28;97875;-79
2023/03/26 02:10:54;;;;;;;2.00;1.07;;;;;;;10.94;65.09;100186.47;4999223;28;97690;-79
2023/03/26 02:13:20;;;;;;;2.70;1.30;;;;;;;10.87;64.94;100195.25;5012577;27;100833;-78
2023/03/26 02:16:00;;;;;;;2.77;0.67;;;;;;;10.91;64.90;100185.47;4996931;28;98941;-79
2023/03/26 02:18:37;;;;;;;2.90;1.10;;;;;;;10.89;65.03;100198.22;5003505;28;97494;-79
2023/03/26 02:21:18;;;;;;;2.60;0.83;;;;;;;10.94;65.19;100192.69;4996217;28;97453;-80
2023/03/26 02:23:45;;;;;;;2.30;1.00;;;;;;;10.93;64.95;100195.97;4996967;28;97534;-80
2023/03/26 02:26:13;;;;;;;1.07;0.90;;;;;;;10.93;64.96;100185.72;4998943;28;97670;-79
2023/03/26 02:28:38;;;;;;;1.87;0.70;;;;;;;10.94;64.99;100194.72;5002064;28;97202;-80
2023/03/26 02:31:04;;;;;;;2.93;0.93;;;;;;;10.91;64.75;100207.50;4997837;28;97526;-79
2023/03/26 02:33:30;;;;;;;1.43;0.73;;;;;;;10.93;64.90;100190.47;4999181;28;97719;-79
2023/03/26 02:36:03;;;;;;;1.90;0.90;;;;;;;10.91;64.84;100198.47;5003662;28;99194;-79
2023/03/26 02:38:32;;;;;;;3.10;0.80;;;;;;;10.83;64.66;100176.25;5003075;28;97296;-79
2023/03/26 02:40:58;;;;;;;3.60;1.13;;;;;;;10.84;64.68;100193.50;5006421;28;97348;-79
2023/03/26 02:43:24;;;;;;;2.53;0.90;;;;;;;10.78;64.71;100192.75;4999717;28;96878;-79
2023/03/26 02:45:49;;;;;;;5.57;1.30;;;;;;;10.70;64.71;100189.03;4998905;28;100178;-80
2023/03/26 02:48:15;;;;;;;3.70;0.90;;;;;;;10.64;64.67;100188.31;5000636;28;97355;-79
2023/03/26 02:50:41;;;;;;;5.63;1.43;;;;;;;10.61;64.87;100194.81;5002225;28;97090;-79
2023/03/26 02:53:07;;;;;;;1.43;0.63;;;;;;;10.55;64.79;100184.56;4999055;28;97287;-79
2023/03/26 02:55:32;;;;;;;5.37;1.00;;;;;;;10.51;64.83;100178.56;5001864;28;97672;-81
2023/03/26 02:57:58;;;;;;;1.53;1.00;;;;;;;10.51;64.85;100189.56;5002062;28;97251;-80
2023/03/26 03:00:24;;;;;;;2.00;0.90;;;;;;;10.49;64.81;100189.31;5005274;28;100370;-79
2023/03/26 03:02:51;;;;;;;6.63;0.90;;;;;;;10.48;64.72;100179.56;5002243;28;100496;-80
2023/03/26 03:05:18;;;;;;;4.17;0.80;;;;;;;10.47;64.60;100191.06;5002999;28;98996;-79
2023/03/26 03:07:45;;;;;;;2.73;0.70;;;;;;;10.42;64.63;100178.81;4999291;28;96760;-80
2023/03/26 03:10:12;;;;;;;3.13;0.90;;;;;;;10.42;64.56;100187.06;4996620;28;96790;-79
2023/03/26 03:12:41;;;;;;;2.67;0.73;;;;;;;10.44;64.77;100192.09;4999157;28;97678;-80
2023/03/26 03:15:07;;;;;;;7.83;1.00;;;;;;;10.46;64.78;100165.56;5001504;28;97684;-80
2023/03/26 03:17:33;;;;;;;2.20;0.70;;;;;;;10.46;64.71;100165.56;5003651;28;97387;-80
2023/03/26 03:19:58;;;;;;;3.10;1.07;;;;;;;10.47;64.55;100178.06;5000568;28;97332;-79
2023/03/26 03:22:24;;;;;;;1.17;0.90;;;;;;;10.47;64.58;100166.31;4997550;28;97860;-80
2023/03/26 03:24:50;;;;;;;3.33;0.90;;;;;;;10.50;64.58;100166.09;4997941;28;97920;-79
2023/03/26 03:27:19;;;;;;;3.90;1.03;;;;;;;10.55;64.39;100179.06;4999447;28;97335;-80
2023/03/26 03:29:45;;;;;;;1.83;0.67;;;;;;;10.57;64.55;100171.03;5000489;28;96932;-80
2023/03/26 03:32:11;;;;;;;1.53;0.70;;;;;;;10.58;64.46;100163.56;5001674;28;100014;-80
2023/03/26 03:34:37;;;;;;;1.73;1.10;;;;;;;10.58;64.48;100166.31;4999294;27;97329;-80
2023/03/26 03:37:03;;;;;;;1.57;0.90;;;;;;;10.63;64.43;100164.78;4996117;28;97192;-79
2023/03/26 03:39:29;;;;;;;2.53;0.80;;;;;;;10.65;64.37;100184.28;5003208;28;97050;-79
2023/03/26 03:41:54;;;;;;;1.40;0.70;;;;;;;10.65;64.43;100168.53;4992695;28;99825;-79
2023/03/26 03:44:20;;;;;;;2.90;0.80;;;;;;;10.66;64.47;100161.78;4996345;28;97195;-80
2023/03/26 03:46:47;;;;;;;2.20;0.57;;;;;;;10.68;64.53;100164.03;4999253;28;97242;-78
2023/03/26 03:49:13;;;;;;;3.87;1.27;;;;;;;10.70;64.29;100156.03;4997421;28;96984;-78
2023/03/26 03:51:38;;;;;;;2.13;0.90;;;;;;;10.74;64.39;100160.03;5000583;28;97888;-79
2023/03/26 03:54:04;;;;;;;1.10;0.60;;;;;;;10.78;64.16;100173.50;4994884;28;107580;-79
2023/03/26 03:56:29;;;;;;;2.97;1.10;;;;;;;10.79;64.20;100167.47;4999513;28;96871;-78
2023/03/26 03:58:57;;;;;;;2.57;0.67;;;;;;;10.79;64.36;100156.47;4999054;28;97024;-79
2023/03/26 04:01:22;;;;;;;1.37;0.80;;;;;;;10.82;64.19;100162.97;4998017;28;97839;-78
2023/03/26 04:03:47;;;;;;;2.57;0.97;;;;;;;10.85;64.17;100156.47;4999050;28;100406;-78
2023/03/26 04:06:17;;;;;;;2.80;0.73;;;;;;;10.87;64.30;100154.72;4998510;28;97417;-76
2023/03/26 04:08:43;;;;;;;1.30;1.10;;;;;;;10.87;64.19;100159.47;5006594;28;97541;-79
2023/03/26 04:11:09;;;;;;;3.40;0.60;;;;;;;10.87;64.29;100154.72;5001857;28;100250;-79
2023/03/26 04:13:35;;;;;;;2.33;0.80;;;;;;;10.91;64.24;100160.69;4999638;28;97093;-79
2023/03/26 04:16:00;;;;;;;8.27;0.83;;;;;;;10.85;64.29;100214.25;4994919;28;97176;-80
2023/03/26 04:18:26;;;;;;;3.73;0.80;;;;;;;10.91;64.32;100157.19;5001944;28;97676;-78
2023/03/26 04:20:54;;;;;;;3.73;0.77;;;;;;;10.92;64.23;100158.72;4997143;28;97238;-78
2023/03/26 04:23:21;;;;;;;1.17;0.67;;;;;;;10.89;64.22;100156.94;4997590;28;97169;-79
2023/03/26 04:25:52;;;;;;;5.60;0.87;;;;;;;10.87;64.25;100175.97;5000878;28;97207;-79
2023/03/26 04:28:31;;;;;;;1.73;0.90;;;;;;;10.85;64.37;100170.22;4999714;28;96792;-78
2023/03/26 04:30:59;;;;;;;2.57;0.93;;;;;;;10.83;64.43;100168.00;4997370;28;98092;-80
2023/03/26 04:33:30;;;;;;;3.80;0.83;;;;;;;10.84;64.15;100150.22;5000531;28;100634;-79
2023/03/26 04:36:00;;;;;;;1.20;1.10;;;;;;;10.83;64.28;100176.25;4998972;28;96895;-78
2023/03/26 04:38:26;;;;;;;2.90;0.60;;;;;;;10.81;64.24;100172.50;4997824;28;97719;-79
2023/03/26 04:40:52;;;;;;;5.43;0.67;;;;;;;10.77;64.09;100161.00;4997910;28;98004;-80
2023/03/26 04:43:17;;;;;;;2.10;0.80;;;;;;;10.74;64.25;100154.50;4998833;28;99077;-78
2023/03/26 04:45:44;;;;;;;2.40;0.57;;;;;;;10.76;64.37;100162.25;5000525;28;97188;-79
2023/03/26 04:48:13;;;;;;;2.27;0.97;;;;;;;10.75;64.17;100210.25;4998890;28;99160;-79
2023/03/26 04:50:40;;;;;;;3.10;1.60;;;;;;;10.81;64.13;100161.50;4998317;28;97574;-80
2023/03/26 04:53:06;;;;;;;1.03;0.73;;;;;;;10.74;64.20;100151.75;4998533;28;97765;-79
2023/03/26 04:55:38;;;;;;;1.27;0.80;;;;;;;10.77;64.09;100177.53;4996388;28;96695;-79
2023/03/26 04:58:04;;;;;;;2.63;0.67;;;;;;;10.76;64.17;100174.00;5003048;28;96982;-79
2023/03/26 05:00:30;;;;;;;1.10;0.73;;;;;;;10.76;64.17;100179.53;4995836;28;98772;-79
2023/03/26 05:02:56;;;;;;;0.83;0.57;;;;;;;10.77;64.21;100166.50;5001854;28;97178;-79
2023/03/26 05:05:22;;;;;;;2.83;0.73;;;;;;;10.75;64.16;100166.25;4996770;28;97369;-79
2023/03/26 05:07:48;;;;;;;4.60;0.77;;;;;;;10.78;64.08;100171.50;4996462;28;96993;-78
2023/03/26 05:10:14;;;;;;;4.70;0.77;;;;;;;10.78;64.01;100168.00;5000168;28;100537;-80
2023/03/26 05:12:40;;;;;;;1.53;0.83;;;;;;;10.77;64.06;100177.53;4997136;28;99510;-79
2023/03/26 05:15:08;;;;;;;4.20;0.90;;;;;;;10.76;64.09;100152.00;4998491;28;96807;-79
2023/03/26 05:17:33;;;;;;;1.83;0.53;;;;;;;10.75;64.07;100160.75;4994523;28;97259;-79
2023/03/26 05:20:03;;;;;;;2.20;0.60;;;;;;;10.73;63.94;100146.75;4997556;28;99911;-79
2023/03/26 05:22:28;;;;;;;2.70;1.00;;;;;;;10.75;64.04;100155.25;4997665;28;97079;-79
2023/03/26 05:24:53;;;;;;;1.33;0.70;;;;;;;10.72;64.00;100173.53;4994252;28;97570;-80
2023/03/26 05:27:19;;;;;;;0.70;0.70;;;;;;;10.75;63.97;100160.75;4998307;28;97436;-79
2023/03/26 05:29:45;;;;;;;1.57;0.90;;;;;;;10.76;64.07;100157.50;4996392;28;97303;-79
2023/03/26 05:32:10;;;;;;;2.30;0.60;;;;;;;10.77;63.97;100161.00;5001476;28;99394;-79
2023/03/26 05:34:38;;;;;;;4.17;1.23;;;;;;;10.79;64.07;100161.97;4997644;28;96908;-79
2023/03/26 05:37:05;;;;;;;0.93;0.60;;;;;;;10.78;63.95;100168.00;4998207;28;96833;-79
2023/03/26 05:39:31;;;;;;;2.80;0.90;;;;;;;10.81;63.90;100170.47;4997929;28;96789;-79
2023/03/26 05:41:56;;;;;;;2.93;0.60;;;;;;;10.82;63.88;100168.47;5002552;28;100393;-80
2023/03/26 05:44:21;;;;;;;2.67;0.70;;;;;;;10.79;63.75;100144.75;4996996;28;96894;-79
2023/03/26 05:46:47;;;;;;;1.87;0.60;;;;;;;10.78;63.83;100146.75;4998343;28;97196;-78
2023/03/26 05:49:12;;;;;;;2.77;0.80;;;;;;;10.80;63.81;100154.47;4997858;28;100299;-78
2023/03/26 05:51:38;;;;;;;2.40;0.70;;;;;;;10.78;63.89;100163.25;4997436;28;101031;-79
2023/03/26 05:54:03;;;;;;;2.10;0.67;;;;;;;10.79;63.88;100164.00;4996393;28;97507;-80
2023/03/26 05:56:28;;;;;;;2.63;1.00;;;;;;;10.84;63.91;100168.72;4996010;28;96992;-79
2023/03/26 05:58:55;;;;;;;1.80;0.83;;;;;;;10.87;63.78;100151.22;4998034;28;100194;-79
2023/03/26 06:01:21;;;;;;;5.17;1.00;;;;;;;10.88;63.70;100152.69;4997683;28;100305;-78
2023/03/26 06:03:47;;;;;;;2.53;0.80;;;;;;;10.89;63.72;100159.72;4998206;28;97753;-79
2023/03/26 06:06:15;;;;;;;6.13;0.80;;;;;;;10.90;63.67;100147.47;4998608;28;96793;-79
2023/03/26 06:08:47;;;;;;;1.60;0.70;;;;;;;10.90;63.70;100152.97;4995991;28;98383;-78
2023/03/26 06:11:13;;;;;;;1.53;0.60;;;;;;;10.92;63.67;100151.19;4998725;28;100357;-78
2023/03/26 06:13:39;;;;;;;1.27;0.63;;;;;;;10.92;63.61;100166.97;5001492;28;96831;-79
2023/03/26 06:16:05;;;;;;;2.77;1.10;;;;;;;10.92;63.63;100140.16;4999780;28;97393;-79
2023/03/26 06:18:30;;;;;;;1.73;0.90;;;;;;;10.96;63.79;100159.19;4999698;28;97824;-78
2023/03/26 06:20:55;;;;;;;1.93;0.90;;;;;;;10.98;63.61;100142.91;4999031;28;99268;-78
2023/03/26 06:23:22;;;;;;;3.47;0.80;;;;;;;10.98;63.40;100138.16;4997078;28;96818;-76
2023/03/26 06:25:47;;;;;;;1.73;1.23;;;;;;;11.01;63.63;100152.88;5005565;28;97104;-78
2023/03/26 06:28:13;;;;;;;2.20;0.90;;;;;;;10.98;63.29;100146.41;5001083;28;97240;-79
2023/03/26 06:30:39;;;;;;;4.10;0.80;;;;;;;11.02;63.54;100146.16;4997434;28;99183;-79
2023/03/26 06:33:04;;;;;;;1.03;0.77;;;;;;;10.96;63.58;100178.44;5000021;28;96837;-79
2023/03/26 06:35:30;;;;;;;2.47;0.80;;;;;;;11.02;63.46;100148.91;5003459;28;97415;-79
2023/03/26 06:37:56;;;;;;;2.70;0.97;;;;;;;11.01;63.50;100155.66;5005079;28;97200;-78
2023/03/26 06:40:21;;;;;;;3.47;0.80;;;;;;;11.03;63.47;100151.13;5004834;28;99324;-78
2023/03/26 06:42:47;;;;;;;1.00;0.67;;;;;;;11.06;63.49;100150.13;5006812;28;96987;-79
2023/03/26 06:45:12;;;;;;;2.40;1.03;;;;;;;11.07;63.43;100153.63;5002673;28;97414;-79
2023/03/26 06:47:38;;;;;;;3.23;1.00;;;;;;;11.08;63.30;100168.88;5000116;28;97862;-79
2023/03/26 06:50:03;;;;;;;1.47;0.80;;;;;;;11.08;63.40;100171.63;4998396;28;97397;-79
2023/03/26 06:52:29;;;;;;;3.87;1.00;;;;;;;11.09;63.20;100160.13;5001824;28;97005;-79
2023/03/26 06:54:54;;;;;;;2.60;0.77;;;;;;;11.01;63.50;100158.41;4999018;28;97295;-78
2023/03/26 06:57:20;;;;;;;4.87;1.23;;;;;;;11.08;63.38;100171.63;5002514;28;99188;-79
2023/03/26 06:59:45;;;;;;;2.70;1.60;;;;;;;11.07;63.29;100183.91;4998161;28;99453;-79
2023/03/26 07:02:11;;;;;;;2.57;1.20;;;;;;;11.00;63.44;100163.19;4999254;28;97274;-80
2023/03/26 07:04:36;;;;;;;2.17;0.93;;;;;;;10.88;63.62;100169.22;4999762;28;97003;-79
2023/03/26 07:07:02;;;;;;;6.33;1.40;;;;;;;10.70;63.49;100176.03;5001298;28;97735;-78
2023/03/26 07:09:29;;;;;;;4.57;1.20;;;;;;;10.61;63.87;100161.81;4996391;28;100246;-79
2023/03/26 07:11:56;;;;;;;5.30;1.33;;;;;;;10.64;64.01;100158.78;4999487;28;97103;-78
2023/03/26 07:14:21;;;;;;;4.10;1.10;;;;;;;10.67;64.01;100170.78;4997108;28;96901;-79
2023/03/26 07:16:47;;;;;;;2.37;1.20;;;;;;;10.68;63.95;100153.03;4999126;28;99234;-79
2023/03/26 07:19:12;;;;;;;3.50;1.00;;;;;;;10.64;63.98;100161.53;5000365;28;97669;-79
2023/03/26 07:21:37;;;;;;;3.17;0.90;;;;;;;10.72;63.83;100157.03;4998073;28;97464;-80
2023/03/26 07:24:03;;;;;;;5.83;1.53;;;;;;;10.78;63.77;100149.50;4999843;28;97246;-79
2023/03/26 07:26:52;;;;;;;10.77;1.47;;;;;;;10.81;63.62;100145.72;4997504;28;97243;-78
2023/03/26 07:29:46;;;;;;;7.50;0.90;;;;;;;10.84;63.51;100154.97;5004843;28;99996;-79
2023/03/26 07:32:40;;;;;;;1.20;0.57;;;;;;;10.88;63.56;100144.44;5001245;28;97184;-78
2023/03/26 07:35:16;;;;;;;5.13;1.50;;;;;;;10.92;63.43;100142.19;4999877;28;97344;-79
2023/03/26 07:37:56;;;;;;;6.60;1.03;;;;;;;10.95;63.32;100141.16;4995071;28;97697;-79
2023/03/26 07:41:00;;;;;;;5.10;1.27;;;;;;;10.98;63.27;100140.16;5000159;28;97181;-79
2023/03/26 07:43:39;;;;;;;2.10;1.00;;;;;;;10.99;63.24;100136.91;5005665;28;97327;-78
2023/03/26 07:46:12;;;;;;;3.97;1.10;;;;;;;11.03;63.26;100137.38;5001502;28;97346;-79
2023/03/26 07:48:43;;;;;;;4.83;1.37;;;;;;;11.09;63.40;100143.63;4997785;28;97135;-79
2023/03/26 07:51:10;;;;;;;6.80;1.77;;;;;;;11.16;63.09;100145.09;4995599;28;100595;-79
2023/03/26 07:53:35;;;;;;;4.50;1.50;;;;;;;11.20;63.20;100159.34;4999912;28;96936;-79
2023/03/26 07:56:17;;;;;;;7.70;0.97;;;;;;;11.27;63.26;100136.75;4996923;28;100553;-78
2023/03/26 07:59:03;;;;;;;5.77;1.60;;;;;;;11.31;62.96;100137.97;4999435;28;97677;-79
2023/03/26 08:01:50;;;;;;;3.67;1.07;;;;;;;11.35;62.68;100136.97;4998478;28;99231;-78
2023/03/26 08:04:47;;;;;;;2.30;1.00;;;;;;;11.33;62.59;100138.22;4998611;28;97202;-78
2023/03/26 08:07:38;;;;;;;9.53;1.77;;;;;;;11.40;62.55;100133.44;4998642;28;96851;-79
2023/03/26 08:10:41;;;;;;;4.83;1.60;;;;;;;11.43;62.49;100137.91;4995607;28;98990;-80
2023/03/26 08:13:23;;;;;;;5.70;1.13;;;;;;;11.46;62.36;100140.41;4999806;28;100762;-80
2023/03/26 08:16:06;;;;;;;4.37;1.17;;;;;;;11.50;62.33;100140.88;5014507;27;97872;-78
2023/03/26 08:18:48;;;;;;;4.20;1.57;;;;;;;11.59;62.41;100140.56;4999731;28;97627;-77
2023/03/26 08:21:30;;;;;;;5.53;1.30;;;;;;;11.69;62.35;100136.25;4995842;28;98565;-78
2023/03/26 08:24:09;;;;;;;4.80;1.00;;;;;;;11.79;62.58;100131.94;4995903;28;97023;-79
2023/03/26 08:26:44;;;;;;;2.63;0.93;;;;;;;11.85;62.30;100129.88;4999146;28;97285;-79
2023/03/26 08:29:31;;;;;;;3.20;1.03;;;;;;;11.92;61.44;100123.81;4995603;28;97275;-78
2023/03/26 08:31:58;;;;;;;4.07;0.97;;;;;;;12.11;61.68;100134.91;4997054;28;98338;-78
2023/03/26 08:34:23;;;;;;;4.60;1.10;;;;;;;12.17;61.63;100135.59;4993322;28;99766;-79
2023/03/26 08:36:49;;;;;;;2.13;1.07;;;;;;;12.29;61.45;100134.25;5001016;28;97336;-78
2023/03/26 08:39:14;;;;;;;5.53;1.23;;;;;;;12.36;61.11;100121.91;4997680;28;96841;-79
2023/03/26 08:42:10;;;;;;;7.80;1.63;;;;;;;12.26;59.55;100117.97;4991198;28;100582;-79
2023/03/26 08:45:06;;;;;;;5.43;1.80;;;;;;;12.44;59.71;100120.81;4996105;28;97403;-78
2023/03/26 08:48:18;;;;;;;7.63;1.37;;;;;;;12.56;59.59;100118.66;4995535;28;97191;-78
2023/03/26 08:51:17;;;;;;;3.30;1.03;;;;;;;12.74;59.55;100124.22;4997345;28;97120;-78
2023/03/26 08:54:15;;;;;;;5.30;1.37;;;;;;;12.82;58.75;100131.94;4993071;28;96760;-80
2023/03/26 08:57:02;;;;;;;5.63;1.00;;;;;;;12.77;58.36;100139.00;4995458;28;97110;-79
2023/03/26 08:59:43;;;;;;;4.90;1.20;;;;;;;12.72;59.30;100120.50;4995888;28;97184;-78
2023/03/26 09:02:44;;;;;;;2.43;0.83;;;;;;;12.83;59.14;100128.63;4999035;28;96956;-79
2023/03/26 09:05:29;;;;;;;5.50;1.20;;;;;;;12.99;60.17;100124.94;4997367;28;99526;-78
2023/03/26 09:08:13;;;;;;;4.43;1.03;;;;;;;13.04;58.96;100126.84;4994330;28;101036;-78
2023/03/26 09:11:11;;;;;;;4.27;1.43;;;;;;;12.92;57.76;100122.00;4995019;28;97168;-77
2023/03/26 09:14:07;;;;;;;2.00;0.90;;;;;;;12.84;58.93;100127.38;4991758;28;97288;-77
2023/03/26 09:16:45;;;;;;;3.50;0.93;;;;;;;12.94;57.77;100125.75;4996402;28;97312;-79
2023/03/26 09:19:37;;;;;;;2.13;1.00;;;;;;;12.90;57.92;100125.31;4995445;28;97634;-79
2023/03/26 09:22:20;;;;;;;2.37;0.87;;;;;;;12.83;58.20;100136.91;4994555;28;97076;-79
2023/03/26 09:25:27;;;;;;;2.63;1.60;;;;;;;12.93;57.36;100123.50;5001878;28;97229;-78
2023/03/26 09:28:11;;;;;;;2.13;0.90;;;;;;;13.04;59.00;100124.09;4981215;28;99307;-78
2023/03/26 09:30:45;;;;;;;2.60;0.87;;;;;;;13.11;58.32;100122.78;4995854;28;97447;-79
2023/03/26 09:33:30;;;;;;;1.63;1.23;;;;;;;13.19;58.12;100132.00;4994437;28;96976;-80
2023/03/26 09:36:13;;;;;;;4.70;1.43;;;;;;;13.16;58.36;100130.25;4997921;28;97230;-78
2023/03/26 09:38:48;;;;;;;1.73;0.90;;;;;;;13.38;59.10;100121.66;4996631;28;100811;-79
2023/03/26 09:41:53;;;;;;;5.90;1.23;;;;;;;13.47;57.76;100116.50;4996673;28;96803;-79
2023/03/26 09:44:38;;;;;;;3.73;1.40;;;;;;;13.68;58.23;100111.16;4997477;28;96829;-79
2023/03/26 09:47:25;;;;;;;4.10;1.30;;;;;;;13.85;57.66;100113.66;4999546;28;97753;-79
2023/03/26 09:50:25;;;;;;;4.30;1.53;;;;;;;13.98;57.22;100127.50;4996968;28;96759;-80
2023/03/26 09:53:29;;;;;;;3.80;0.90;;;;;;;14.04;56.48;100117.13;4983176;28;100546;-80
2023/03/26 09:56:03;;;;;;;1.50;0.80;;;;;;;14.12;57.78;100124.25;4996726;28;97270;-80
2023/03/26 09:58:50;;;;;;;7.20;1.13;;;;;;;14.18;57.66;100121.38;5003206;28;97550;-79
2023/03/26 10:01:30;;;;;;;6.03;1.27;;;;;;;14.05;56.89;100124.88;4998751;28;99280;-79
2023/03/26 10:04:11;;;;;;;2.30;0.80;;;;;;;13.97;56.95;100118.47;4996100;28;97749;-79
2023/03/26 10:06:59;;;;;;;1.30;0.67;;;;;;;13.93;57.04;100118.06;5004287;28;97049;-80
2023/03/26 10:09:35;;;;;;;3.20;0.90;;;;;;;13.83;57.03;100114.19;4989174;28;97377;-79
2023/03/26 10:12:17;;;;;;;6.00;1.30;;;;;;;13.80;56.31;100118.03;4994750;28;98442;-79
2023/03/26 10:15:05;;;;;;;2.27;0.90;;;;;;;13.83;56.52;100118.97;4991236;28;100433;-78
2023/03/26 10:17:37;;;;;;;1.63;0.80;;;;;;;13.90;57.03;100118.34;4994264;28;97187;-80
2023/03/26 10:20:27;;;;;;;2.10;0.73;;;;;;;13.78;55.86;100117.03;4995324;28;99051;-78
2023/03/26 10:23:17;;;;;;;2.50;1.10;;;;;;;13.67;56.66;100117.22;4994629;28;100106;-77
2023/03/26 10:25:45;;;;;;;7.17;1.27;;;;;;;13.47;56.73;100099.94;4995299;28;100693;-80
2023/03/26 10:28:41;;;;;;;5.07;1.30;;;;;;;13.47;55.98;100111.00;4998548;28;97064;-80
2023/03/26 10:31:46;;;;;;;1.63;0.77;;;;;;;13.56;56.20;100111.88;4999154;28;96822;-79
2023/03/26 10:34:57;;;;;;;2.03;0.77;;;;;;;13.56;54.84;100109.09;4990701;28;101644;-81
2023/03/26 10:38:01;;;;;;;2.07;1.37;;;;;;;13.45;54.77;100107.25;4998740;28;98947;-80
2023/03/26 10:40:29;;;;;;;6.10;1.17;;;;;;;13.38;56.79;100096.81;4997608;28;97154;-80
2023/03/26 10:43:30;;;;;;;4.87;0.90;;;;;;;13.39;55.74;100101.03;4998517;28;97252;-80
2023/03/26 10:46:13;;;;;;;3.07;1.27;;;;;;;13.42;55.59;100100.00;5003432;28;99998;-79
2023/03/26 10:48:51;;;;;;;4.50;1.27;;;;;;;13.24;56.09;100098.00;5004307;28;100206;-81
2023/03/26 10:51:50;;;;;;;4.57;1.27;;;;;;;13.32;53.74;100096.88;4999310;28;98339;-79
2023/03/26 10:54:49;;;;;;;3.00;1.20;;;;;;;13.36;52.33;100100.09;4994362;28;96662;-81
2023/03/26 10:57:33;;;;;;;4.10;1.13;;;;;;;13.26;53.97;100090.69;4997894;28;100879;-79
2023/03/26 11:00:26;;;;;;;2.97;1.00;;;;;;;13.14;52.92;100083.84;5002102;28;100045;-81
2023/03/26 11:03:13;;;;;;;3.70;1.40;;;;;;;13.08;55.36;100080.41;4995950;27;96779;-79
2023/03/26 11:06:00;;;;;;;2.17;1.30;;;;;;;13.33;54.87;100084.56;5000973;28;96930;-80
2023/03/26 11:08:39;;;;;;;4.60;1.63;;;;;;;13.45;54.55;100085.16;5002071;28;97638;-80
2023/03/26 11:11:10;;;;;;;3.67;1.40;;;;;;;13.42;55.53;100081.41;5001182;28;96816;-79
2023/03/26 11:13:56;;;;;;;4.73;1.13;;;;;;;13.35;54.54;100095.84;5000970;28;97372;-80
2023/03/26 11:16:28;;;;;;;6.20;1.33;;;;;;;13.40;54.71;100103.31;5005435;28;97034;-80
2023/03/26 11:19:09;;;;;;;2.73;1.43;;;;;;;13.44;55.00;100081.63;5000342;28;97503;-79
2023/03/26 11:21:41;;;;;;;2.10;0.87;;;;;;;13.67;54.90;100101.38;4997724;28;99164;-77
2023/03/26 11:24:50;;;;;;;2.40;1.17;;;;;;;13.84;54.12;100098.34;5006769;28;97166;-80
2023/03/26 11:27:31;;;;;;;2.97;1.27;;;;;;;13.70;54.76;100102.34;5000638;28;96728;-80
2023/03/26 11:30:32;;;;;;;3.93;1.07;;;;;;;13.86;54.36;100101.31;4998983;28;99571;-79
2023/03/26 11:33:02;;;;;;;2.80;1.03;;;;;;;13.84;55.17;100090.03;4998183;28;97254;-79
2023/03/26 11:35:35;;;;;;;3.47;1.03;;;;;;;13.87;53.53;100100.78;4999615;28;97281;-80
2023/03/26 11:38:12;;;;;;;3.60;1.30;;;;;;;13.85;55.25;100088.75;4996898;28;97702;-80
2023/03/26 11:40:41;;;;;;;3.47;1.27;;;;;;;13.72;55.05;100097.03;5007035;28;97782;-80
2023/03/26 11:43:10;;;;;;;3.33;1.30;;;;;;;13.61;55.10;100086.16;5000575;28;99043;-80
2023/03/26 11:45:43;;;;;;;5.27;1.60;;;;;;;13.68;54.83;100105.63;4999880;28;97196;-77
2023/03/26 11:48:22;;;;;;;4.07;1.30;;;;;;;13.81;54.61;100093.84;5000628;28;96893;-79
2023/03/26 11:50:52;;;;;;;7.17;1.50;;;;;;;13.94;55.21;100093.88;5006134;28;99515;-80
2023/03/26 11:53:28;;;;;;;3.17;1.23;;;;;;;14.03;55.17;100099.78;5005429;28;100012;-79
2023/03/26 11:56:16;;;;;;;2.70;1.40;;;;;;;14.18;53.94;100093.72;5000834;28;97884;-79